Time;durP1;ratioP1;P1;durP2;ratioP2;P2;SDS_P1;SDS_P2;PMS_P1;PMS_P2;Temp;Humidity;BMP_temperature;BMP_pressure;BME280_temperature;BME280_humidity;BME280_pressure;Samples;Min_cycle;Max_cycle;Signal;HPM_P1;HPM_P2
2023/11/04 00:01:39;;;;;;;1.43;0.90;;;;;;;7.23;100.00;98597.47;5110956;28;20060;-35
2023/11/04 00:04:04;;;;;;;1.90;0.70;;;;;;;7.35;100.00;98613.34;5110009;28;20024;-35
2023/11/04 00:06:30;;;;;;;1.70;0.67;;;;;;;7.39;100.00;98605.56;5110837;28;20050;-35
2023/11/04 00:08:55;;;;;;;1.07;0.67;;;;;;;7.31;100.00;98598.81;5099808;28;20460;-35
2023/11/04 00:11:22;;;;;;;1.47;0.80;;;;;;;7.40;100.00;98607.19;5097105;28;20101;-35
2023/11/04 00:13:47;;;;;;;1.30;0.80;;;;;;;7.26;100.00;98579.97;5096135;28;20487;-35
2023/11/04 00:16:13;;;;;;;4.05;0.70;;;;;;;7.43;100.00;98598.59;5096633;28;20028;-35
2023/11/04 00:18:38;;;;;;;2.05;0.77;;;;;;;7.46;100.00;98608.81;5096390;28;20045;-35
2023/11/04 00:21:07;;;;;;;1.85;0.75;;;;;;;7.37;100.00;98587.03;5096674;28;20024;-35
2023/11/04 00:23:33;;;;;;;1.60;0.70;;;;;;;7.48;100.00;98602.09;5096565;28;20055;-35
2023/11/04 00:25:58;;;;;;;0.90;0.70;;;;;;;7.49;100.00;98606.41;5096534;28;20054;-35
2023/11/04 00:28:24;;;;;;;1.33;0.80;;;;;;;7.53;100.00;98597.81;5096159;28;20103;-35
2023/11/04 00:30:49;;;;;;;3.13;0.73;;;;;;;7.55;100.00;98596.47;5095192;28;20603;-35
2023/11/04 00:33:16;;;;;;;1.07;0.80;;;;;;;7.56;100.00;98600.75;5096364;28;20024;-35
2023/11/04 00:35:41;;;;;;;2.08;0.80;;;;;;;7.60;100.00;98593.78;5096030;28;20533;-35
2023/11/04 00:38:07;;;;;;;1.50;0.77;;;;;;;7.53;100.00;98576.31;5095930;28;20035;-35
2023/11/04 00:40:32;;;;;;;2.37;0.80;;;;;;;7.63;100.00;98592.47;5096238;28;20024;-37
2023/11/04 00:42:57;;;;;;;1.50;0.80;;;;;;;7.65;100.00;98596.47;5095895;28;20051;-35
2023/11/04 00:45:23;;;;;;;3.57;0.97;;;;;;;7.58;100.00;98577.13;5095659;28;20020;-35
2023/11/04 00:47:48;;;;;;;2.07;1.00;;;;;;;7.70;100.00;98599.19;5095845;28;20305;-35
2023/11/04 00:50:14;;;;;;;1.20;0.70;;;;;;;7.69;100.00;98592.19;5095809;28;20024;-35
2023/11/04 00:52:40;;;;;;;1.50;0.70;;;;;;;7.72;100.00;98588.16;5096022;28;20024;-35
2023/11/04 00:55:05;;;;;;;1.65;0.80;;;;;;;7.73;100.00;98592.47;5096007;28;20032;-35
2023/11/04 00:57:31;;;;;;;1.67;0.77;;;;;;;7.74;100.00;98594.88;5095505;28;20519;-35
2023/11/04 00:59:56;;;;;;;1.23;0.52;;;;;;;7.75;100.00;98591.13;5095673;28;20080;-35
2023/11/04 01:02:21;;;;;;;2.03;0.90;;;;;;;7.78;100.00;98600.53;5095838;28;20109;-35
2023/11/04 01:04:47;;;;;;;1.87;0.90;;;;;;;7.76;100.00;98597.31;5096044;28;20020;-35
2023/11/04 01:07:12;;;;;;;2.10;0.83;;;;;;;7.79;100.00;98594.09;5095436;28;20032;-35
2023/11/04 01:09:38;;;;;;;2.40;0.93;;;;;;;7.80;100.00;98593.00;5095163;28;20020;-35
2023/11/04 01:12:04;;;;;;;1.53;0.80;;;;;;;7.82;100.00;98595.44;5095447;28;20111;-35
2023/11/04 01:14:29;;;;;;;2.35;1.00;;;;;;;7.83;100.00;98587.09;5095039;28;20027;-35
2023/11/04 01:16:55;;;;;;;2.07;0.90;;;;;;;7.80;100.00;98586.81;5095209;28;20228;-35
2023/11/04 01:19:20;;;;;;;3.23;1.20;;;;;;;7.89;100.00;98587.91;5094330;28;20028;-35
2023/11/04 01:21:45;;;;;;;3.60;2.30;;;;;;;7.84;100.00;98569.88;5095161;28;20044;-35
2023/11/04 01:24:11;;;;;;;2.20;0.80;;;;;;;7.92;100.00;98582.81;5095184;28;20063;-35
2023/11/04 01:26:36;;;;;;;1.83;1.20;;;;;;;7.95;100.00;98584.13;5095406;28;20460;-35
2023/11/04 01:29:01;;;;;;;1.30;0.90;;;;;;;7.89;100.00;98574.44;5095335;28;20411;-35
2023/11/04 01:31:27;;;;;;;3.33;1.20;;;;;;;7.96;100.00;98575.00;5095778;28;20114;-35
2023/11/04 01:33:52;;;;;;;1.13;0.90;;;;;;;7.96;100.00;98575.00;5095530;28;20055;-35
2023/11/04 01:36:18;;;;;;;5.28;1.40;;;;;;;7.87;100.00;98555.91;5095405;28;20056;-35
2023/11/04 01:38:43;;;;;;;2.78;0.95;;;;;;;7.99;100.00;98574.44;5094774;28;20099;-35
2023/11/04 01:41:09;;;;;;;1.87;1.10;;;;;;;8.00;100.00;98566.13;5095127;28;20482;-35
2023/11/04 01:43:34;;;;;;;2.70;1.10;;;;;;;8.00;100.00;98571.50;5094505;28;20537;-35
2023/11/04 01:46:15;;;;;;;2.00;1.30;;;;;;;8.04;100.00;98577.13;5095011;28;20112;-35
2023/11/04 01:48:42;;;;;;;2.53;1.02;;;;;;;8.05;100.00;98567.19;5094872;28;20276;-35
2023/11/04 01:51:08;;;;;;;2.90;1.23;;;;;;;8.08;100.00;98563.97;5095434;28;20051;-35
2023/11/04 01:53:36;;;;;;;3.47;1.70;;;;;;;8.05;100.00;98545.66;5094546;28;20073;-35
2023/11/04 01:56:03;;;;;;;3.13;1.52;;;;;;;8.11;100.00;98555.34;5093896;28;20054;-35
2023/11/04 01:58:29;;;;;;;4.72;1.85;;;;;;;8.13;100.00;98555.88;5094953;28;20097;-35
2023/11/04 02:00:55;;;;;;;;;;;;;;;8.16;100.00;98547.28;5094824;28;20028;-35
2023/11/04 02:03:20;;;;;;;2.55;1.20;;;;;;;8.15;100.00;98551.84;5094079;28;20428;-35
2023/11/04 02:05:46;;;;;;;4.53;1.10;;;;;;;8.17;100.00;98554.25;5095192;28;20024;-35
2023/11/04 02:08:12;;;;;;;2.72;1.40;;;;;;;8.11;100.00;98528.44;5094280;28;20020;-35
2023/11/04 02:10:38;;;;;;;3.20;1.48;;;;;;;8.17;100.00;98543.50;5094811;28;20063;-35
2023/11/04 02:13:04;;;;;;;2.75;1.30;;;;;;;8.10;100.00;98537.56;5094207;28;20051;-35
2023/11/04 02:15:29;;;;;;;2.05;0.95;;;;;;;8.19;100.00;98544.81;5094254;28;20028;-35
2023/11/04 02:17:54;;;;;;;1.93;1.00;;;;;;;8.18;100.00;98539.72;5094054;28;20028;-35
2023/11/04 02:20:24;;;;;;;2.50;1.10;;;;;;;8.18;100.00;98542.41;5093838;28;20046;-35
2023/11/04 02:22:50;;;;;;;3.65;1.20;;;;;;;8.17;100.00;98533.53;5094377;28;20549;-35
2023/11/04 02:25:17;;;;;;;3.33;1.60;;;;;;;8.09;100.00;98528.69;5094337;28;20028;-35
2023/11/04 02:27:42;;;;;;;2.80;1.30;;;;;;;8.18;100.00;98528.94;5093913;28;20032;-35
2023/11/04 02:30:08;;;;;;;3.20;1.20;;;;;;;8.08;100.00;98520.88;5094500;28;20457;-35
2023/11/04 02:32:33;;;;;;;2.58;1.35;;;;;;;8.09;100.00;98526.00;5093682;28;20456;-35
2023/11/04 02:35:03;;;;;;;4.03;1.20;;;;;;;8.17;100.00;98528.16;5094755;28;20111;-35
2023/11/04 02:37:29;;;;;;;2.72;1.00;;;;;;;8.16;100.00;98525.75;5093698;28;20035;-35
2023/11/04 02:39:54;;;;;;;2.92;1.30;;;;;;;8.18;100.00;98537.03;5093854;28;20110;-35
2023/11/04 02:42:20;;;;;;;2.40;1.50;;;;;;;8.18;100.00;98535.13;5094125;28;20379;-35
2023/11/04 02:44:45;;;;;;;4.45;1.38;;;;;;;8.18;100.00;98528.94;5093729;28;20618;-35
2023/11/04 02:47:10;;;;;;;2.47;1.30;;;;;;;8.20;100.00;98532.19;5093449;28;20028;-35
2023/11/04 02:49:36;;;;;;;9.53;1.57;;;;;;;8.19;100.00;98528.66;5093674;28;20028;-35
2023/11/04 02:52:01;;;;;;;2.87;1.33;;;;;;;8.19;100.00;98531.38;5094506;28;20657;-35
2023/11/04 02:54:28;;;;;;;4.83;1.30;;;;;;;8.18;100.00;98524.38;5094167;28;20067;-35
2023/11/04 02:56:53;;;;;;;4.05;1.27;;;;;;;8.17;100.00;98519.25;5093923;28;20111;-35
2023/11/04 02:59:19;;;;;;;3.58;1.25;;;;;;;8.15;100.00;98514.16;5094511;28;20067;-35
2023/11/04 03:01:44;;;;;;;7.07;2.35;;;;;;;8.18;100.00;98523.56;5093377;28;20025;-35
2023/11/04 03:04:10;;;;;;;4.87;1.40;;;;;;;8.15;100.00;98518.72;5093520;28;20028;-35
2023/11/04 03:06:35;;;;;;;4.72;1.52;;;;;;;8.17;100.00;98520.06;5093282;28;20060;-35
2023/11/04 03:09:01;;;;;;;5.00;1.70;;;;;;;8.18;100.00;98521.69;5093536;28;20031;-35
2023/11/04 03:11:26;;;;;;;2.50;1.30;;;;;;;8.11;100.00;98512.28;5093876;28;20258;-35
2023/11/04 03:13:51;;;;;;;2.60;1.37;;;;;;;8.17;100.00;98522.75;5093468;28;20024;-35
2023/11/04 03:16:21;;;;;;;2.67;1.50;;;;;;;8.18;100.00;98518.19;5094037;28;20046;-35
2023/11/04 03:18:47;;;;;;;3.00;1.63;;;;;;;8.17;100.00;98520.06;5093133;28;20313;-35
2023/11/04 03:21:12;;;;;;;;;;;;;;;8.21;100.00;98520.34;5094716;28;20024;-35
2023/11/04 03:23:39;;;;;;;2.92;1.45;;;;;;;8.15;100.00;98516.03;5093678;28;19915;-35
2023/11/04 03:26:07;;;;;;;3.25;1.42;;;;;;;8.17;100.00;98508.50;5093349;28;20055;-35
2023/11/04 03:28:34;;;;;;;4.13;1.88;;;;;;;8.15;100.00;98511.47;5092953;28;20111;-35
2023/11/04 03:30:59;;;;;;;3.17;1.40;;;;;;;8.15;100.00;98505.25;5093903;28;20028;-35
2023/11/04 03:33:24;;;;;;;3.30;1.33;;;;;;;8.16;100.00;98510.38;5093318;28;20027;-35
2023/11/04 03:35:50;;;;;;;3.97;2.17;;;;;;;8.06;100.00;98488.88;5093254;28;20410;-35
2023/11/04 03:38:15;;;;;;;4.47;1.80;;;;;;;8.12;100.00;98498.53;5093255;28;20028;-35
2023/11/04 03:40:41;;;;;;;4.10;1.63;;;;;;;8.12;100.00;98503.94;5093296;28;20364;-35
2023/11/04 03:43:07;;;;;;;2.83;1.65;;;;;;;8.09;100.00;98499.06;5093972;28;20039;-35
2023/11/04 03:45:32;;;;;;;;;;;;;;;8.13;100.00;98493.97;5097487;28;20049;-35
2023/11/04 03:47:57;;;;;;;3.83;1.88;;;;;;;8.06;100.00;98490.75;5097762;28;19907;-35
2023/11/04 03:50:23;;;;;;;2.37;1.60;;;;;;;8.09;100.00;98495.59;5096821;28;20028;-35
2023/11/04 03:52:48;;;;;;;4.17;2.33;;;;;;;8.06;100.00;98493.44;5096853;28;20032;-35
2023/11/04 03:55:13;;;;;;;4.03;2.00;;;;;;;7.93;100.00;98468.69;5097155;28;20020;-35
2023/11/04 03:57:39;;;;;;;2.47;1.63;;;;;;;7.99;100.00;98475.69;5097449;28;20457;-35
2023/11/04 04:00:05;;;;;;;3.57;1.87;;;;;;;8.00;100.00;98471.94;5096565;28;20396;-35
2023/11/04 04:02:30;;;;;;;;;;;;;;;8.05;100.00;98470.28;5097123;28;20039;-35
2023/11/04 04:04:56;;;;;;;2.50;1.70;;;;;;;7.99;100.00;98467.59;5096629;28;19919;-35
2023/11/04 04:07:21;;;;;;;5.33;2.00;;;;;;;7.97;100.00;98464.38;5096603;28;20031;-35
2023/11/04 04:09:46;;;;;;;3.43;2.00;;;;;;;7.96;100.00;98464.66;5096885;28;20361;-35
2023/11/04 04:12:12;;;;;;;4.83;1.90;;;;;;;7.96;100.00;98462.78;5096601;28;20028;-35
2023/11/04 04:14:40;;;;;;;3.80;1.90;;;;;;;7.97;100.00;98464.38;5097267;28;20031;-35
2023/11/04 04:17:05;;;;;;;3.40;1.73;;;;;;;7.97;100.00;98459.00;5096350;28;20430;-35
2023/11/04 04:19:30;;;;;;;5.97;2.03;;;;;;;7.99;100.00;98450.66;5096695;28;20028;-35
2023/11/04 04:21:56;;;;;;;3.67;2.00;;;;;;;7.92;100.00;98442.88;5096111;28;20265;-35
2023/11/04 04:24:21;;;;;;;3.33;1.85;;;;;;;8.03;100.00;98450.91;5095968;28;20108;-35
2023/11/04 04:26:47;;;;;;;4.13;1.70;;;;;;;7.96;100.00;98438.56;5096668;28;20038;-35
2023/11/04 04:29:13;;;;;;;5.45;1.98;;;;;;;8.04;100.00;98441.75;5095852;28;20032;-35
2023/11/04 04:31:38;;;;;;;4.33;2.20;;;;;;;8.05;100.00;98441.47;5097067;28;20039;-35
2023/11/04 04:34:03;;;;;;;4.72;2.33;;;;;;;8.03;100.00;98429.38;5096356;28;20024;-35
2023/11/04 04:36:30;;;;;;;3.03;1.87;;;;;;;7.97;100.00;98417.84;5095774;28;20580;-35
2023/11/04 04:38:55;;;;;;;;;;;;;;;8.09;100.00;98430.97;5096397;28;20408;-35
2023/11/04 04:41:20;;;;;;;4.77;2.00;;;;;;;8.08;100.00;98432.88;5096330;28;19915;-35
2023/11/04 04:43:46;;;;;;;4.07;2.10;;;;;;;8.08;100.00;98438.25;5096401;28;20289;-35
2023/11/04 04:46:11;;;;;;;2.40;2.00;;;;;;;8.10;100.00;98425.34;5095645;28;20024;-35
2023/11/04 04:48:37;;;;;;;5.13;1.77;;;;;;;8.12;100.00;98428.56;5095639;28;20107;-35
2023/11/04 04:51:02;;;;;;;3.90;1.85;;;;;;;8.13;100.00;98423.97;5096381;28;20031;-35
2023/11/04 04:53:28;;;;;;;4.22;2.17;;;;;;;8.14;100.00;98418.31;5095484;28;20471;-35
2023/11/04 04:55:53;;;;;;;3.93;2.40;;;;;;;8.14;100.00;98415.63;5096206;28;20028;-35
2023/11/04 04:58:19;;;;;;;3.80;2.30;;;;;;;8.01;100.00;98394.69;5096246;28;20286;-35
2023/11/04 05:00:45;;;;;;;;;;;;;;;8.18;100.00;98411.31;5096103;28;20483;-35
2023/11/04 05:03:10;;;;;;;7.03;2.80;;;;;;;8.09;100.00;98398.69;5095585;28;19912;-35
2023/11/04 05:05:36;;;;;;;8.17;3.00;;;;;;;8.11;100.00;98393.84;5096412;28;20032;-35
2023/11/04 05:08:01;;;;;;;9.02;2.15;;;;;;;8.18;100.00;98403.22;5096278;28;20292;-35
2023/11/04 05:10:27;;;;;;;5.72;2.38;;;;;;;8.19;100.00;98401.34;5095843;28;20024;-35
2023/11/04 05:12:52;;;;;;;4.23;2.00;;;;;;;8.18;100.00;98389.75;5095404;28;20024;-35
2023/11/04 05:15:18;;;;;;;6.35;2.10;;;;;;;8.21;100.00;98393.81;5095170;28;20033;-35
2023/11/04 05:17:45;;;;;;;3.35;1.88;;;;;;;8.07;100.00;98365.88;5094874;28;20035;-35
2023/11/04 05:20:11;;;;;;;3.72;2.03;;;;;;;8.24;100.00;98395.94;5095510;28;20111;-35
2023/11/04 05:22:36;;;;;;;5.97;2.13;;;;;;;8.15;100.00;98381.44;5095129;28;20051;-35
2023/11/04 05:25:03;;;;;;;4.07;2.03;;;;;;;8.22;100.00;98393.53;5095737;28;20024;-35
2023/11/04 05:27:29;;;;;;;3.78;2.03;;;;;;;8.24;100.00;98393.25;5095246;28;20468;-35
2023/11/04 05:29:54;;;;;;;5.65;2.20;;;;;;;8.18;100.00;98373.63;5095081;28;20078;-35
2023/11/04 05:32:19;;;;;;;3.87;1.80;;;;;;;8.27;100.00;98384.63;5095030;28;20046;-35
2023/11/04 05:34:45;;;;;;;4.47;2.10;;;;;;;8.29;100.00;98381.66;5095013;28;20032;-35
2023/11/04 05:37:10;;;;;;;5.67;2.53;;;;;;;8.31;100.00;98377.63;5094843;28;20111;-35
2023/11/04 05:39:35;;;;;;;5.05;2.20;;;;;;;8.24;100.00;98366.31;5094523;28;20059;-35
2023/11/04 05:42:02;;;;;;;5.80;1.83;;;;;;;8.30;100.00;98367.94;5095411;28;20035;-35
2023/11/04 05:44:28;;;;;;;4.57;1.90;;;;;;;8.19;100.00;98350.19;5094433;28;20052;-35
2023/11/04 05:46:53;;;;;;;5.05;2.10;;;;;;;8.25;100.00;98357.97;5095289;28;20055;-35
2023/11/04 05:49:18;;;;;;;5.73;1.90;;;;;;;8.30;100.00;98357.16;5094699;28;20460;-35
2023/11/04 05:51:44;;;;;;;10.73;3.37;;;;;;;8.30;100.00;98359.84;5095285;28;20246;-35
2023/11/04 05:54:12;;;;;;;6.03;1.80;;;;;;;8.30;100.00;98359.84;5094645;28;20035;-35
2023/11/04 05:56:38;;;;;;;4.40;1.75;;;;;;;8.25;100.00;98341.03;5094641;28;20615;-35
2023/11/04 05:59:04;;;;;;;5.88;1.73;;;;;;;8.22;100.00;98342.38;5094782;28;20039;-35
2023/11/04 06:01:30;;;;;;;5.10;1.80;;;;;;;8.11;100.00;98323.88;5094199;28;20409;-35
2023/11/04 06:03:56;;;;;;;5.30;1.60;;;;;;;8.16;100.00;98348.06;5093739;28;20270;-35
2023/11/04 06:06:21;;;;;;;6.30;1.80;;;;;;;8.09;100.00;98323.31;5092830;28;20036;-34
2023/11/04 06:08:47;;;;;;;8.10;1.83;;;;;;;8.13;100.00;98337.84;5094005;28;20028;-34
2023/11/04 06:11:13;;;;;;;7.18;1.80;;;;;;;8.03;100.00;98319.84;5094561;28;20273;-34
2023/11/04 06:13:39;;;;;;;7.57;2.72;;;;;;;8.10;100.00;98330.31;5093983;28;20380;-34
2023/11/04 06:16:06;;;;;;;6.03;1.67;;;;;;;8.00;100.00;98313.13;5094241;28;20028;-34
2023/11/04 06:18:31;;;;;;;4.65;1.77;;;;;;;8.04;100.00;98315.25;5094389;28;20071;-34
2023/11/04 06:20:56;;;;;;;4.63;1.30;;;;;;;8.11;100.00;98323.88;5094218;28;20519;-34
2023/11/04 06:23:21;;;;;;;5.63;1.77;;;;;;;8.11;100.00;98318.47;5093844;28;20486;-34
2023/11/04 06:25:47;;;;;;;5.27;1.53;;;;;;;7.98;100.00;98296.44;5094674;28;20055;-34
2023/11/04 06:28:12;;;;;;;5.80;1.63;;;;;;;8.13;100.00;98314.41;5093751;28;20063;-34
2023/11/04 06:30:37;;;;;;;4.97;1.33;;;;;;;8.12;100.00;98322.78;5094096;28;20027;-34
2023/11/04 06:33:03;;;;;;;4.03;1.40;;;;;;;8.11;100.00;98307.72;5093424;28;20031;-34
2023/11/04 06:35:28;;;;;;;4.80;1.57;;;;;;;8.11;100.00;98302.31;5093753;28;20479;-34
2023/11/04 06:37:54;;;;;;;7.10;2.00;;;;;;;8.10;100.00;98306.06;5094049;28;20024;-34
2023/11/04 06:40:20;;;;;;;3.63;1.15;;;;;;;8.09;100.00;98304.47;5093485;28;20103;-34
2023/11/04 06:42:45;;;;;;;6.87;1.50;;;;;;;8.08;100.00;98309.06;5093269;28;20508;-34
2023/11/04 06:45:11;;;;;;;7.43;1.60;;;;;;;7.99;100.00;98299.94;5092897;28;20345;-34
2023/11/04 06:47:36;;;;;;;4.72;1.33;;;;;;;8.07;100.00;98312.03;5093323;28;20355;-34
2023/11/04 06:50:03;;;;;;;5.77;1.30;;;;;;;8.05;100.00;98300.72;5094328;28;20047;-34
2023/11/04 06:52:30;;;;;;;4.72;1.75;;;;;;;8.05;100.00;98303.41;5093914;28;20137;-34
2023/11/04 06:54:55;;;;;;;;;;;;;;;8.07;100.00;98303.97;5093044;28;20068;-34
2023/11/04 06:57:20;;;;;;;5.68;1.30;;;;;;;8.00;100.00;98296.16;5093428;28;19958;-34
2023/11/04 06:59:46;;;;;;;3.93;1.20;;;;;;;7.99;100.00;98300.75;5093445;28;20031;-34
2023/11/04 07:02:12;;;;;;;3.03;1.20;;;;;;;8.02;100.00;98293.22;5092754;28;20032;-34
2023/11/04 07:04:37;;;;;;;3.60;1.08;;;;;;;8.00;100.00;98291.59;5092926;28;20043;-34
2023/11/04 07:07:03;;;;;;;5.57;1.63;;;;;;;7.92;100.00;98267.97;5093724;28;20453;-34
2023/11/04 07:09:32;;;;;;;8.20;2.28;;;;;;;7.97;100.00;98278.69;5094359;28;20024;-34
2023/11/04 07:11:57;;;;;;;3.85;1.00;;;;;;;7.99;100.00;98283.78;5093183;28;20491;-34
2023/11/04 07:14:24;;;;;;;3.33;1.20;;;;;;;8.00;100.00;98280.84;5093506;28;20032;-34
2023/11/04 07:16:49;;;;;;;5.57;1.25;;;;;;;7.98;100.00;98260.66;5093965;28;20028;-34
2023/11/04 07:19:15;;;;;;;3.30;1.50;;;;;;;8.02;100.00;98271.69;5095964;28;20028;-34
2023/11/04 07:21:41;;;;;;;6.10;1.40;;;;;;;8.00;100.00;98263.88;5097778;28;20024;-34
2023/11/04 07:24:07;;;;;;;3.65;1.20;;;;;;;8.03;100.00;98267.91;5097919;28;20686;-34
2023/11/04 07:26:32;;;;;;;6.18;1.73;;;;;;;8.05;100.00;98260.34;5097373;28;20107;-34
2023/11/04 07:28:58;;;;;;;5.73;1.50;;;;;;;7.96;100.00;98241.31;5096870;28;20032;-35
2023/11/04 07:31:23;;;;;;;6.72;1.75;;;;;;;8.10;100.00;98253.06;5098218;28;20115;-34
2023/11/04 07:33:49;;;;;;;4.22;1.30;;;;;;;8.12;100.00;98256.28;5097343;28;20027;-34
2023/11/04 07:36:23;;;;;;;4.18;1.58;;;;;;;8.08;100.00;98233.69;5097747;28;20413;-34
2023/11/04 07:38:49;;;;;;;4.78;1.25;;;;;;;8.16;100.00;98248.47;5096727;28;20036;-34
2023/11/04 07:41:14;;;;;;;3.33;1.30;;;;;;;8.19;100.00;98247.88;5097221;28;20453;-34
2023/11/04 07:43:40;;;;;;;4.13;1.40;;;;;;;8.21;100.00;98246.53;5097429;28;20367;-34
2023/11/04 07:46:06;;;;;;;2.55;1.20;;;;;;;8.22;100.00;98233.88;5097612;28;20056;-34
2023/11/04 07:48:31;;;;;;;3.75;1.40;;;;;;;8.28;100.00;98232.75;5096388;28;20035;-34
2023/11/04 07:50:57;;;;;;;4.27;1.43;;;;;;;8.27;100.00;98215.00;5097068;28;20055;-34
2023/11/04 07:53:23;;;;;;;3.75;1.20;;;;;;;8.39;100.00;98222.75;5096891;28;20422;-35
2023/11/04 07:55:48;;;;;;;5.30;1.30;;;;;;;8.40;100.00;98211.72;5096808;28;20028;-35
2023/11/04 07:58:14;;;;;;;4.97;1.20;;;;;;;8.46;100.00;98210.59;5096681;28;20056;-34
2023/11/04 08:00:40;;;;;;;4.45;1.30;;;;;;;8.45;100.00;98206.28;5096763;28;20265;-34
2023/11/04 08:03:05;;;;;;;3.47;1.10;;;;;;;8.44;100.00;98196.59;5096481;28;20031;-35
2023/11/04 08:05:30;;;;;;;4.20;1.20;;;;;;;8.42;100.00;98196.06;5096918;28;20111;-35
2023/11/04 08:07:56;;;;;;;4.55;1.30;;;;;;;8.33;100.00;98180.75;5097168;28;20038;-34
2023/11/04 08:10:21;;;;;;;3.53;1.33;;;;;;;8.37;100.00;98177.25;5095504;28;20044;-34
2023/11/04 08:12:47;;;;;;;2.70;0.90;;;;;;;8.41;100.00;98178.31;5097285;28;20020;-34
2023/11/04 08:15:12;;;;;;;7.70;2.23;;;;;;;8.42;100.00;98171.84;5096874;28;20016;-34
2023/11/04 08:17:39;;;;;;;2.50;1.10;;;;;;;8.44;100.00;98175.06;5096052;28;20077;-34
2023/11/04 08:20:08;;;;;;;3.75;1.42;;;;;;;8.45;100.00;98162.41;5096198;28;20357;-34
2023/11/04 08:22:36;;;;;;;3.10;0.93;;;;;;;8.41;100.00;98146.00;5096734;28;20020;-34
2023/11/04 08:25:01;;;;;;;5.35;1.20;;;;;;;8.50;100.00;98144.31;5096253;28;20080;-34
2023/11/04 08:27:26;;;;;;;3.63;1.17;;;;;;;8.56;100.00;98141.56;5096467;28;20439;-34
2023/11/04 08:29:52;;;;;;;4.57;0.93;;;;;;;8.44;100.00;98110.44;5095199;28;20281;-34
2023/11/04 08:32:17;;;;;;;2.60;1.00;;;;;;;8.62;100.00;98126.94;5096190;28;20274;-34
2023/11/04 08:34:43;;;;;;;3.22;1.10;;;;;;;8.67;100.00;98122.31;5096075;28;20746;-35
2023/11/04 08:37:09;;;;;;;3.70;1.20;;;;;;;8.77;100.00;98124.09;5096308;28;20034;-34
2023/11/04 08:39:34;;;;;;;6.03;1.73;;;;;;;8.81;100.00;98106.28;5096045;28;20456;-34
2023/11/04 08:41:59;;;;;;;2.53;0.80;;;;;;;8.87;100.00;98093.56;5095809;28;20085;-35
2023/11/04 08:44:25;;;;;;;1.93;0.90;;;;;;;9.13;100.00;98102.16;5095029;28;20754;-35
2023/11/04 08:46:51;;;;;;;2.20;0.77;;;;;;;9.12;100.00;98101.34;5095708;28;20738;-34
2023/11/04 08:49:16;;;;;;;;;;;;;;;9.25;100.00;98106.03;5096263;28;20024;-34
2023/11/04 08:51:42;;;;;;;2.33;0.83;;;;;;;9.22;100.00;98109.34;5096196;28;20370;-35
2023/11/04 08:54:09;;;;;;;2.33;1.20;;;;;;;9.24;100.00;98104.44;5095329;28;20281;-34
2023/11/04 08:56:35;;;;;;;2.85;1.27;;;;;;;9.25;100.00;98105.25;5094861;28;20139;-34
2023/11/04 08:59:01;;;;;;;2.97;1.02;;;;;;;9.22;100.00;98095.03;5095464;28;20110;-34
2023/11/04 09:01:26;;;;;;;3.37;0.97;;;;;;;9.17;100.00;98079.72;5095756;28;20106;-35
2023/11/04 09:03:55;;;;;;;2.77;0.97;;;;;;;9.27;100.00;98097.66;5095585;28;20322;-35
2023/11/04 09:06:22;;;;;;;4.32;1.38;;;;;;;9.24;100.00;98084.75;5095197;28;20020;-34
2023/11/04 09:08:47;;;;;;;3.03;1.30;;;;;;;9.26;100.00;98080.66;5095757;28;20024;-34
2023/11/04 09:11:12;;;;;;;2.80;1.13;;;;;;;9.27;100.00;98084.16;5094885;28;20031;-34
2023/11/04 09:13:38;;;;;;;3.30;1.10;;;;;;;9.27;100.00;98063.44;5095270;28;20510;-34
2023/11/04 09:16:04;;;;;;;3.92;1.23;;;;;;;9.26;100.00;98063.69;5094991;28;20074;-34
2023/11/04 09:18:29;;;;;;;3.88;0.90;;;;;;;9.25;100.00;98062.91;5095198;28;20102;-34
2023/11/04 09:20:54;;;;;;;2.80;0.97;;;;;;;9.24;100.00;98055.09;5095255;28;20057;-34
2023/11/04 09:23:20;;;;;;;3.57;1.60;;;;;;;9.25;100.00;98051.31;5095693;28;20024;-34
2023/11/04 09:25:45;;;;;;;4.72;1.20;;;;;;;9.28;100.00;98056.13;5094673;28;20758;-34
2023/11/04 09:28:12;;;;;;;4.80;1.13;;;;;;;9.22;100.00;98035.69;5095074;28;20028;-34
2023/11/04 09:30:38;;;;;;;3.95;1.15;;;;;;;9.29;100.00;98039.66;5094989;28;20028;-34
2023/11/04 09:33:03;;;;;;;2.40;1.10;;;;;;;9.33;100.00;98042.59;5094446;28;20039;-35
2023/11/04 09:35:29;;;;;;;2.88;1.00;;;;;;;9.35;100.00;98035.00;5094617;28;20035;-34
2023/11/04 09:37:54;;;;;;;2.95;1.15;;;;;;;9.40;100.00;98037.63;5094805;28;20111;-34
2023/11/04 09:40:20;;;;;;;4.68;1.27;;;;;;;9.45;100.00;98034.84;5094038;28;20036;-34
2023/11/04 09:42:46;;;;;;;3.78;1.20;;;;;;;9.48;100.00;98028.88;5094275;28;20464;-34
2023/11/04 09:45:12;;;;;;;5.05;1.30;;;;;;;9.52;100.00;98016.41;5095055;28;20388;-34
2023/11/04 09:47:37;;;;;;;4.07;1.40;;;;;;;9.60;100.00;98017.63;5094706;28;20032;-34
2023/11/04 09:50:04;;;;;;;3.65;0.98;;;;;;;9.65;100.00;98014.06;5094390;28;20089;-34
2023/11/04 09:52:32;;;;;;;4.63;1.20;;;;;;;9.69;100.00;98005.06;5094969;28;20020;-34
2023/11/04 09:54:59;;;;;;;5.28;1.35;;;;;;;9.71;100.00;98007.47;5094674;28;20028;-34
2023/11/04 09:57:25;;;;;;;3.22;1.10;;;;;;;9.59;100.00;97967.47;5094167;28;20148;-34
2023/11/04 09:59:51;;;;;;;5.22;1.65;;;;;;;9.79;100.00;97982.53;5094545;28;20059;-34
2023/11/04 10:02:16;;;;;;;2.47;1.08;;;;;;;9.74;100.00;97966.41;5094249;28;20036;-35
2023/11/04 10:04:42;;;;;;;6.00;1.20;;;;;;;9.83;100.00;97975.44;5094924;28;20024;-34
2023/11/04 10:07:07;;;;;;;4.28;0.98;;;;;;;9.85;100.00;97973.25;5094319;28;20511;-34
2023/11/04 10:09:37;;;;;;;3.58;1.23;;;;;;;9.88;100.00;97963.75;5094390;28;20032;-34
2023/11/04 10:12:03;;;;;;;3.55;0.82;;;;;;;9.86;100.00;97947.88;5093895;28;20039;-35
2023/11/04 10:14:29;;;;;;;2.75;1.17;;;;;;;9.83;100.00;97931.47;5094437;28;20019;-34
2023/11/04 10:16:54;;;;;;;3.17;1.20;;;;;;;9.88;100.00;97945.66;5093733;28;20484;-34
2023/11/04 10:19:21;;;;;;;2.97;0.80;;;;;;;9.89;100.00;97931.06;5094477;28;20031;-35
2023/11/04 10:21:50;;;;;;;2.58;1.15;;;;;;;9.84;100.00;97928.47;5094683;28;20106;-35
2023/11/04 10:24:15;;;;;;;3.00;0.73;;;;;;;9.84;100.00;97912.25;5094052;28;20395;-34
2023/11/04 10:26:44;;;;;;;6.37;1.30;;;;;;;9.85;100.00;97911.16;5093864;28;20040;-34
2023/11/04 10:29:09;;;;;;;2.83;1.10;;;;;;;9.85;100.00;97900.38;5093989;28;20032;-34
2023/11/04 10:31:35;;;;;;;3.13;1.00;;;;;;;9.82;100.00;97909.06;5093985;28;20487;-34
2023/11/04 10:34:02;;;;;;;;;;;;;;;9.88;100.00;97899.78;5094886;28;20345;-34
2023/11/04 10:36:31;;;;;;;3.75;0.82;;;;;;;9.81;100.00;97891.28;5093427;28;19961;-34
2023/11/04 10:39:11;;;;;;;2.78;0.93;;;;;;;9.82;100.00;97886.69;5094113;28;20024;-34
2023/11/04 10:41:42;;;;;;;5.10;1.25;;;;;;;9.79;100.00;97871.88;5093946;28;20403;-34
2023/11/04 10:44:36;;;;;;;2.10;0.90;;;;;;;9.81;100.00;97872.41;5093250;28;20107;-34
2023/11/04 10:47:16;;;;;;;3.80;1.13;;;;;;;9.81;100.00;97858.91;5094272;28;20028;-34
2023/11/04 10:49:56;;;;;;;5.13;1.10;;;;;;;9.77;100.00;97849.81;5094254;28;20085;-35
2023/11/04 10:52:25;;;;;;;2.13;0.90;;;;;;;9.72;100.00;97829.09;5093247;28;20535;-34
2023/11/04 10:55:12;;;;;;;4.28;0.98;;;;;;;9.81;100.00;97837.31;5093081;28;20031;-34
2023/11/04 10:57:44;;;;;;;3.33;1.00;;;;;;;9.74;100.00;97815.31;5093870;28;20117;-34
2023/11/04 11:00:14;;;;;;;2.78;0.98;;;;;;;9.60;100.00;97782.91;5093598;28;20619;-35
2023/11/04 11:02:42;;;;;;;2.58;0.80;;;;;;;9.74;100.00;97799.91;5093446;28;20108;-35
2023/11/04 11:05:11;;;;;;;3.88;1.02;;;;;;;9.80;100.00;97811.41;5073021;28;20029;-35
2023/11/04 11:07:46;;;;;;;4.78;1.25;;;;;;;9.77;100.00;97809.31;5073382;28;20411;-35
2023/11/04 11:10:13;;;;;;;2.88;1.00;;;;;;;9.66;100.00;97786.31;5072976;28;20396;-35
2023/11/04 11:12:52;;;;;;;2.45;0.80;;;;;;;9.68;100.00;97792.22;5073233;28;20056;-35
2023/11/04 11:15:19;;;;;;;3.05;1.27;;;;;;;9.51;100.00;97755.81;5073460;28;20032;-34
2023/11/04 11:17:55;;;;;;;2.42;0.82;;;;;;;9.46;100.00;97763.22;5088403;28;20102;-34
2023/11/04 11:20:31;;;;;;;;;;;;;;;9.54;100.00;97757.94;5073549;28;20070;-35
2023/11/04 11:22:58;;;;;;;4.75;0.88;;;;;;;9.44;100.00;97752.75;5073020;28;19915;-35
2023/11/04 11:25:30;;;;;;;1.88;0.60;;;;;;;9.38;100.00;97737.75;5072803;28;20032;-34
2023/11/04 11:27:55;;;;;;;3.63;0.82;;;;;;;9.32;100.00;97722.78;5073052;28;20029;-35
2023/11/04 11:30:21;;;;;;;2.20;0.90;;;;;;;9.28;100.00;97727.16;5073396;28;20081;-35
2023/11/04 11:32:46;;;;;;;2.65;0.98;;;;;;;9.15;100.00;97695.59;5073149;28;20291;-34